Time;durP1;ratioP1;P1;durP2;ratioP2;P2;SDS_P1;SDS_P2;PMS_P1;PMS_P2;Temp;Humidity;BMP_temperature;BMP_pressure;BME280_temperature;BME280_humidity;BME280_pressure;Samples;Min_cycle;Max_cycle;Signal;HPM_P1;HPM_P2
2023/01/19 00:01:21;;;;;;;8.00;4.85;;;;;;;1.90;47.20;99829.88;5049281;28;20110;-64
2023/01/19 00:03:49;;;;;;;8.27;5.60;;;;;;;1.91;47.10;99825.34;5050331;28;20379;-65
2023/01/19 00:06:17;;;;;;;8.57;5.43;;;;;;;1.91;47.28;99826.22;5049790;28;20120;-66
2023/01/19 00:08:47;;;;;;;8.75;5.18;;;;;;;1.91;47.25;99823.50;5050063;28;20615;-67
2023/01/19 00:11:16;;;;;;;7.90;5.57;;;;;;;1.92;47.33;99830.59;5049418;28;20054;-67
2023/01/19 00:13:48;;;;;;;7.45;5.40;;;;;;;1.93;47.17;99832.34;5049916;28;20049;-68
2023/01/19 00:16:20;;;;;;;8.45;5.53;;;;;;;1.92;47.17;99836.00;5049135;28;20052;-67
2023/01/19 00:18:50;;;;;;;7.50;5.38;;;;;;;1.93;47.11;99834.19;5049892;28;20048;-67
2023/01/19 00:21:20;;;;;;;8.32;5.63;;;;;;;1.94;47.23;99838.59;5048269;28;20045;-65
2023/01/19 00:23:51;;;;;;;7.80;5.40;;;;;;;1.92;47.34;99836.00;5049902;28;20049;-65
2023/01/19 00:26:20;;;;;;;9.65;5.60;;;;;;;1.93;47.19;99844.97;5048412;28;20045;-66
2023/01/19 00:28:49;;;;;;;8.07;5.30;;;;;;;1.93;47.33;99834.19;5049649;28;20041;-66
2023/01/19 00:31:20;;;;;;;8.63;5.22;;;;;;;1.94;47.24;99847.56;5048616;28;20049;-67
2023/01/19 00:33:50;;;;;;;7.20;4.88;;;;;;;1.93;47.22;99840.44;5049643;28;20041;-65
2023/01/19 00:36:19;;;;;;;7.97;5.50;;;;;;;1.93;47.34;99837.75;5048708;28;20053;-67
2023/01/19 00:38:47;;;;;;;8.23;4.95;;;;;;;1.93;47.27;99837.75;5049625;28;20467;-67
2023/01/19 00:41:15;;;;;;;7.82;5.60;;;;;;;1.94;47.23;99835.91;5049231;28;20051;-66
2023/01/19 00:43:41;;;;;;;8.52;5.18;;;;;;;1.93;47.35;99847.66;5048866;28;20048;-67
2023/01/19 00:46:09;;;;;;;7.45;5.18;;;;;;;1.93;47.17;99845.84;5048907;28;20071;-66
2023/01/19 00:48:38;;;;;;;8.55;4.97;;;;;;;1.94;47.22;99846.69;5049389;28;20762;-68
2023/01/19 00:51:06;;;;;;;7.10;5.07;;;;;;;1.93;47.35;99845.84;5047850;28;20060;-68
2023/01/19 00:53:34;;;;;;;7.53;5.10;;;;;;;1.93;46.88;99850.38;5049117;28;20056;-68
2023/01/19 00:56:02;;;;;;;8.35;4.95;;;;;;;1.92;47.28;99845.97;5048225;28;20060;-68
2023/01/19 00:58:30;;;;;;;7.28;4.75;;;;;;;1.91;47.27;99855.88;5049449;28;20052;-67
2023/01/19 01:01:02;;;;;;;8.35;5.03;;;;;;;1.91;47.28;99853.19;5047984;28;20128;-67
2023/01/19 01:03:30;;;;;;;7.80;5.32;;;;;;;1.88;47.08;99856.97;5048765;28;20120;-68
2023/01/19 01:06:00;;;;;;;8.85;5.30;;;;;;;1.91;47.43;99850.50;5048406;28;20041;-68
2023/01/19 01:08:27;;;;;;;8.27;4.72;;;;;;;1.91;47.47;99852.31;5048162;28;20045;-67
2023/01/19 01:10:56;;;;;;;8.32;5.18;;;;;;;1.91;47.37;99855.03;5048038;28;20037;-68
2023/01/19 01:13:24;;;;;;;7.85;4.80;;;;;;;1.91;47.48;99855.03;5048697;28;20079;-66
2023/01/19 01:15:56;;;;;;;8.68;5.35;;;;;;;1.92;47.34;99848.66;5048130;28;20049;-67
2023/01/19 01:18:25;;;;;;;7.13;4.85;;;;;;;1.91;47.26;99852.31;5048601;28;20128;-67
2023/01/19 01:20:53;;;;;;;8.23;5.28;;;;;;;1.91;47.41;99849.63;5047677;28;20041;-66
2023/01/19 01:23:24;;;;;;;6.93;4.60;;;;;;;1.92;47.33;99844.09;5048287;28;20041;-67
2023/01/19 01:25:52;;;;;;;6.85;4.53;;;;;;;1.91;47.39;99850.50;5047815;28;20045;-68
2023/01/19 01:28:20;;;;;;;7.32;5.10;;;;;;;1.91;47.26;99846.94;5048045;28;20049;-68
2023/01/19 01:30:48;;;;;;;8.10;5.28;;;;;;;1.91;47.44;99853.19;5047328;28;20052;-68
2023/01/19 01:33:15;;;;;;;7.75;4.50;;;;;;;1.90;47.46;99862.25;5048361;28;20165;-67
2023/01/19 01:36:04;;;;;;;9.07;5.18;;;;;;;1.88;47.41;99856.09;5047641;28;20481;-67
2023/01/19 01:38:33;;;;;;;7.13;4.43;;;;;;;1.90;47.59;99864.09;5048348;28;20044;-68
2023/01/19 01:41:01;;;;;;;7.28;4.65;;;;;;;1.88;47.49;99866.88;5047048;28;20049;-65
2023/01/19 01:43:46;;;;;;;8.30;4.78;;;;;;;1.90;47.49;99864.94;5048418;28;20045;-68
2023/01/19 01:46:15;;;;;;;7.07;4.90;;;;;;;1.86;47.44;99856.19;5047411;28;20098;-67
2023/01/19 01:48:50;;;;;;;8.60;5.22;;;;;;;1.89;47.48;99863.22;5048286;28;20049;-67
2023/01/19 01:51:24;;;;;;;7.38;4.70;;;;;;;1.87;47.64;99857.91;5046871;28;20045;-67
2023/01/19 01:54:01;;;;;;;7.65;5.40;;;;;;;1.88;47.72;99850.69;5048307;28;20405;-68
2023/01/19 01:56:33;;;;;;;7.10;4.72;;;;;;;1.86;47.66;99858.88;5047485;28;20060;-67
2023/01/19 01:59:04;;;;;;;7.78;5.05;;;;;;;1.87;47.56;99860.63;5047637;28;20055;-65
2023/01/19 02:04:18;;;;;;;7.35;4.88;;;;;;;1.85;47.56;99854.44;5047104;28;20044;-65
2023/01/19 02:15:16;;;;;;;7.18;4.63;;;;;;;1.86;47.86;99864.28;5046723;28;20047;-66
2023/01/19 02:17:44;;;;;;;6.43;4.57;;;;;;;1.85;47.64;99858.97;5048346;28;20584;-65
2023/01/19 02:20:13;;;;;;;5.90;4.68;;;;;;;1.87;47.67;99862.44;5044760;28;20041;-66
2023/01/19 02:22:47;;;;;;;7.65;4.80;;;;;;;1.88;47.80;99856.97;5047689;28;20393;-66
2023/01/19 02:25:19;;;;;;;7.47;4.68;;;;;;;1.90;47.63;99864.94;5046645;28;20119;-67
2023/01/19 02:27:50;;;;;;;7.22;4.45;;;;;;;1.88;47.65;99861.47;5047299;28;20042;-66
2023/01/19 02:30:18;;;;;;;6.63;4.85;;;;;;;1.88;47.67;99856.97;5047170;28;20052;-67
2023/01/19 02:32:46;;;;;;;8.60;4.95;;;;;;;1.89;47.72;99852.44;5047482;28;20061;-67
2023/01/19 02:35:14;;;;;;;7.40;4.72;;;;;;;1.89;47.58;99855.13;5047118;28;20055;-67
2023/01/19 02:37:44;;;;;;;7.15;4.70;;;;;;;1.90;47.58;99861.38;5047650;28;20107;-68
2023/01/19 02:40:14;;;;;;;7.18;5.00;;;;;;;1.90;47.28;99862.25;5046479;28;20477;-67
2023/01/19 02:42:48;;;;;;;7.35;4.82;;;;;;;1.92;47.64;99860.28;5047327;28;20045;-67
2023/01/19 02:45:19;;;;;;;8.70;5.05;;;;;;;1.91;47.64;99857.72;5045328;28;20073;-67
2023/01/19 02:47:49;;;;;;;7.68;4.78;;;;;;;1.91;47.61;99864.00;5046699;28;20037;-66
2023/01/19 02:50:42;;;;;;;6.18;4.43;;;;;;;1.91;48.01;99855.88;5047045;28;20068;-65
2023/01/19 02:53:28;;;;;;;6.40;4.45;;;;;;;1.90;48.11;99854.16;5046971;28;20087;-67
2023/01/19 02:56:01;;;;;;;7.68;4.90;;;;;;;1.90;47.70;99850.59;5046608;28;20041;-67
2023/01/19 02:58:37;;;;;;;8.10;4.82;;;;;;;1.91;47.70;99846.94;5046838;28;20523;-66
2023/01/19 03:01:12;;;;;;;6.97;4.35;;;;;;;1.91;47.64;99847.78;5046117;28;20136;-67
2023/01/19 03:03:50;;;;;;;6.63;4.22;;;;;;;1.92;47.79;99849.50;5047032;28;20041;-67
2023/01/19 03:06:31;;;;;;;8.50;4.57;;;;;;;1.91;47.65;99846.94;5046080;28;20052;-67
2023/01/19 03:09:04;;;;;;;7.03;4.78;;;;;;;1.90;47.49;99843.38;5047046;28;20548;-67
2023/01/19 03:11:38;;;;;;;7.22;4.68;;;;;;;1.88;47.52;99848.84;5046709;28;20505;-65
2023/01/19 03:14:12;;;;;;;6.85;4.18;;;;;;;1.89;47.61;99841.63;5046814;28;20505;-67
2023/01/19 03:16:46;;;;;;;5.95;4.10;;;;;;;1.87;47.79;99839.03;5046505;28;20079;-67
2023/01/19 03:19:19;;;;;;;6.80;4.30;;;;;;;1.88;47.61;99845.28;5046379;28;20652;-67
2023/01/19 03:21:48;;;;;;;;;;;;;;;1.66;48.28;99847.72;5047225;28;20037;-67
2023/01/19 03:24:20;;;;;;;7.05;3.85;;;;;;;1.81;47.70;99849.38;5046468;28;19920;-66
2023/01/19 03:26:54;;;;;;;5.65;3.92;;;;;;;1.84;47.62;99847.31;5046663;28;20059;-67
2023/01/19 03:29:27;;;;;;;5.88;4.13;;;;;;;1.83;47.48;99850.16;5046554;28;20045;-66
2023/01/19 03:32:02;;;;;;;8.45;4.45;;;;;;;1.81;47.54;99847.56;5046515;28;20127;-67
2023/01/19 03:34:31;;;;;;;7.20;4.53;;;;;;;1.81;47.49;99849.38;5049747;28;20041;-67
2023/01/19 03:37:02;;;;;;;6.68;4.68;;;;;;;1.81;47.58;99850.25;5050390;28;20049;-66
2023/01/19 03:39:31;;;;;;;5.78;3.92;;;;;;;1.81;47.70;99847.56;5049654;28;20045;-67
2023/01/19 03:42:02;;;;;;;6.32;4.13;;;;;;;1.81;47.54;99843.97;5050341;28;20417;-65
2023/01/19 03:44:34;;;;;;;7.10;4.57;;;;;;;1.81;47.79;99855.63;5049947;28;20052;-67
2023/01/19 03:47:04;;;;;;;6.07;4.20;;;;;;;1.80;47.60;99850.34;5050107;28;20594;-67
2023/01/19 03:49:34;;;;;;;6.85;4.00;;;;;;;1.80;47.78;99853.91;5049175;28;20053;-65
2023/01/19 03:52:02;;;;;;;6.95;4.22;;;;;;;1.80;47.66;99859.31;5050312;28;20086;-67
2023/01/19 03:54:31;;;;;;;7.47;4.50;;;;;;;1.81;47.62;99865.56;5049031;28;20045;-67
2023/01/19 03:56:59;;;;;;;5.50;4.00;;;;;;;1.80;47.74;99867.41;5050180;28;20098;-67
2023/01/19 03:59:26;;;;;;;6.70;4.28;;;;;;;1.79;47.71;99860.28;5049151;28;20040;-67
2023/01/19 04:01:56;;;;;;;6.90;4.75;;;;;;;1.83;47.81;99866.34;5050565;28;20037;-68
2023/01/19 04:04:24;;;;;;;7.97;4.60;;;;;;;1.81;47.70;99869.13;5049032;28;20048;-66
2023/01/19 04:06:52;;;;;;;6.70;4.35;;;;;;;1.81;47.80;99871.81;5050290;28;20045;-65
2023/01/19 04:09:20;;;;;;;6.30;3.88;;;;;;;1.83;47.71;99869.91;5048991;28;20045;-65
2023/01/19 04:11:47;;;;;;;7.43;4.00;;;;;;;1.85;47.93;99869.78;5049786;28;20049;-66
2023/01/19 04:14:15;;;;;;;6.85;4.50;;;;;;;1.84;47.94;99868.91;5047832;28;20037;-67
2023/01/19 04:16:43;;;;;;;6.75;4.28;;;;;;;1.85;47.90;99865.25;5048997;28;20053;-67
2023/01/19 04:19:12;;;;;;;7.15;4.20;;;;;;;1.86;47.92;99861.59;5033589;28;20138;-67
2023/01/19 04:21:40;;;;;;;7.00;4.03;;;;;;;1.85;48.02;99862.53;5032745;28;20497;-67
2023/01/19 04:24:09;;;;;;;6.70;4.18;;;;;;;1.87;48.00;99865.16;5043564;28;20045;-67
2023/01/19 04:26:37;;;;;;;6.43;4.38;;;;;;;1.86;47.97;99860.72;5041422;28;20609;-67
2023/01/19 04:29:05;;;;;;;7.22;4.30;;;;;;;1.87;48.15;99865.16;5037929;28;20045;-67
2023/01/19 04:31:34;;;;;;;9.02;4.30;;;;;;;1.87;48.11;99865.16;5042792;28;20033;-66
2023/01/19 04:34:02;;;;;;;6.35;3.90;;;;;;;1.87;48.19;99870.53;5042941;28;20040;-67
2023/01/19 04:36:31;;;;;;;6.80;4.03;;;;;;;1.88;48.33;99865.03;5037035;28;20059;-67
2023/01/19 04:38:59;;;;;;;7.35;4.43;;;;;;;1.87;48.31;99865.16;5042288;28;20072;-67
2023/01/19 04:41:27;;;;;;;6.57;4.35;;;;;;;1.87;48.34;99865.16;5038401;28;20596;-67
2023/01/19 04:43:57;;;;;;;7.88;4.57;;;;;;;1.88;48.31;99864.19;5039336;28;20098;-67
2023/01/19 04:46:25;;;;;;;9.38;4.63;;;;;;;1.87;48.34;99868.72;5039138;28;20410;-67
2023/01/19 04:48:53;;;;;;;7.40;4.57;;;;;;;1.88;48.28;99862.34;5039248;28;20476;-67
2023/01/19 04:51:21;;;;;;;8.55;4.75;;;;;;;1.90;48.55;99867.66;5044187;28;20048;-67
2023/01/19 04:53:50;;;;;;;7.68;4.20;;;;;;;1.91;48.33;99869.38;5036046;28;20045;-67
2023/01/19 04:56:18;;;;;;;8.82;4.50;;;;;;;1.89;48.41;99852.44;5041847;28;20727;-68
2023/01/19 04:58:46;;;;;;;7.78;4.25;;;;;;;1.89;48.45;99852.44;5040110;28;20083;-67
2023/01/19 05:01:13;;;;;;;7.00;4.35;;;;;;;1.88;48.74;99856.97;5030089;28;20034;-67
2023/01/19 05:03:41;;;;;;;7.68;4.68;;;;;;;1.88;48.58;99856.09;5041012;28;20088;-67
2023/01/19 05:06:09;;;;;;;7.50;4.70;;;;;;;1.88;48.45;99856.09;5056867;28;20040;-67
2023/01/19 05:08:37;;;;;;;7.20;4.18;;;;;;;1.87;48.61;99857.91;5049110;28;20061;-68
2023/01/19 05:11:06;;;;;;;7.07;4.55;;;;;;;1.87;48.59;99855.22;5037259;28;20103;-69
2023/01/19 05:13:34;;;;;;;9.25;4.57;;;;;;;1.86;48.61;99855.31;5040637;28;20037;-68
2023/01/19 05:16:03;;;;;;;7.60;4.72;;;;;;;1.85;48.42;99859.84;5053678;28;20048;-67
2023/01/19 05:18:34;;;;;;;7.82;4.25;;;;;;;1.84;48.56;99865.34;5059149;28;20050;-68
2023/01/19 05:21:03;;;;;;;10.10;4.68;;;;;;;1.82;48.48;99862.78;5045875;28;20116;-68
2023/01/19 05:23:31;;;;;;;7.97;4.97;;;;;;;1.80;48.64;99861.13;5024420;28;20049;-68
2023/01/19 05:26:00;;;;;;;7.72;4.40;;;;;;;1.78;48.60;99857.66;5059250;28;20064;-68
2023/01/19 05:28:31;;;;;;;8.82;4.80;;;;;;;1.77;48.95;99853.22;5054429;28;20409;-68
2023/01/19 05:30:58;;;;;;;7.93;4.93;;;;;;;1.74;48.70;99865.13;5053728;28;20044;-68
2023/01/19 05:33:27;;;;;;;8.57;4.72;;;;;;;1.72;48.57;99867.03;5058703;28;20048;-68
2023/01/19 05:35:55;;;;;;;9.05;5.15;;;;;;;1.72;48.56;99863.47;5038605;28;20041;-68
2023/01/19 05:38:23;;;;;;;8.35;4.85;;;;;;;1.69;48.78;99867.25;5035169;28;20555;-68
2023/01/19 05:41:01;;;;;;;9.98;5.57;;;;;;;1.66;48.63;99870.16;5055486;28;20048;-68
2023/01/19 05:43:31;;;;;;;8.45;5.18;;;;;;;1.65;48.97;99868.44;5061949;28;20060;-68
2023/01/19 05:45:59;;;;;;;9.88;5.30;;;;;;;1.63;48.74;99864.09;5044380;28;20045;-68
2023/01/19 05:48:27;;;;;;;10.02;5.28;;;;;;;1.61;49.03;99864.19;5038338;28;20041;-68
2023/01/19 05:50:58;;;;;;;8.52;4.50;;;;;;;1.59;49.59;99871.50;5043577;28;20060;-68
2023/01/19 05:53:27;;;;;;;9.65;5.40;;;;;;;1.56;49.01;99871.72;5043704;28;20029;-67
2023/01/19 05:55:59;;;;;;;8.80;5.35;;;;;;;1.57;49.72;99875.28;5038931;28;20041;-67
2023/01/19 05:58:28;;;;;;;9.35;5.45;;;;;;;1.52;49.07;99864.78;5038974;28;20030;-67
2023/01/19 06:00:57;;;;;;;9.55;5.57;;;;;;;1.53;49.19;99889.94;5044276;28;20522;-68
2023/01/19 06:03:28;;;;;;;9.13;5.20;;;;;;;1.49;49.20;99898.25;5043522;28;20059;-69
2023/01/19 06:05:57;;;;;;;8.35;5.00;;;;;;;1.50;49.14;99896.41;5029580;28;20041;-68
2023/01/19 06:08:25;;;;;;;8.27;5.03;;;;;;;1.48;49.32;99890.25;5042173;28;20040;-67
2023/01/19 06:10:53;;;;;;;8.50;4.57;;;;;;;1.47;49.19;99905.56;5044752;28;20040;-68
2023/01/19 06:13:25;;;;;;;9.10;5.15;;;;;;;1.44;49.53;99900.34;5039051;28;20167;-68
2023/01/19 06:15:59;;;;;;;7.93;4.30;;;;;;;1.46;49.79;99895.72;5042874;28;20037;-68
2023/01/19 06:18:27;;;;;;;6.40;4.25;;;;;;;1.44;49.32;99904.88;5034589;28;20197;-69
2023/01/19 06:20:57;;;;;;;7.03;4.40;;;;;;;1.42;49.56;99912.22;5037392;28;20094;-69
2023/01/19 06:23:25;;;;;;;7.90;4.75;;;;;;;1.41;49.54;99905.97;5032693;28;20120;-68
2023/01/19 06:25:53;;;;;;;7.13;4.40;;;;;;;1.41;49.65;99913.19;5038794;28;20045;-68
2023/01/19 06:28:21;;;;;;;6.60;4.18;;;;;;;1.40;49.52;99906.06;5034878;28;20064;-68
2023/01/19 06:30:49;;;;;;;7.38;4.40;;;;;;;1.38;49.61;99908.84;5036845;28;20036;-69
2023/01/19 06:33:19;;;;;;;6.88;4.32;;;;;;;1.38;49.90;99906.16;5036986;28;20525;-69
2023/01/19 06:35:51;;;;;;;7.32;3.95;;;;;;;1.36;49.60;99907.19;5027966;28;20052;-69
2023/01/19 06:38:19;;;;;;;5.93;3.67;;;;;;;1.36;49.79;99899.13;5037263;28;20040;-70
2023/01/19 06:40:53;;;;;;;7.10;3.83;;;;;;;1.38;50.21;99903.44;5036895;28;20041;-69
2023/01/19 06:43:21;;;;;;;6.78;4.10;;;;;;;1.35;49.90;99909.03;5039142;28;20102;-69
2023/01/19 06:45:50;;;;;;;6.00;3.60;;;;;;;1.36;49.84;99923.38;5037339;28;20478;-69
2023/01/19 06:48:19;;;;;;;5.40;3.33;;;;;;;1.37;50.14;99927.81;5042084;28;20456;-70
2023/01/19 06:50:48;;;;;;;5.90;3.45;;;;;;;1.37;49.79;99933.19;5042427;28;20041;-70
2023/01/19 06:53:18;;;;;;;7.25;3.83;;;;;;;1.37;50.07;99942.16;5039683;28;20095;-69
2023/01/19 06:55:46;;;;;;;6.45;3.80;;;;;;;1.36;50.01;99951.19;5034208;28;20038;-69
2023/01/19 06:58:14;;;;;;;6.22;3.78;;;;;;;1.36;49.93;99948.50;5035120;28;20053;-69
2023/01/19 07:00:42;;;;;;;6.07;3.80;;;;;;;1.36;50.02;99951.19;5040667;28;20095;-69
2023/01/19 07:03:18;;;;;;;6.30;4.13;;;;;;;1.39;50.59;99952.84;5039187;28;20052;-69
2023/01/19 07:05:51;;;;;;;5.93;3.65;;;;;;;1.38;50.63;99953.81;5037447;28;20033;-69
2023/01/19 07:08:19;;;;;;;7.65;3.97;;;;;;;1.35;50.10;99952.16;5034647;28;20070;-69
2023/01/19 07:10:47;;;;;;;6.78;4.05;;;;;;;1.37;50.20;99957.47;5042052;28;20095;-68
2023/01/19 07:13:36;;;;;;;7.03;3.83;;;;;;;1.38;50.00;99959.19;5041117;28;20060;-68
2023/01/19 07:16:05;;;;;;;6.68;4.20;;;;;;;1.38;50.27;99956.50;5045805;28;20041;-68
2023/01/19 07:18:35;;;;;;;7.40;3.78;;;;;;;1.36;49.99;99953.91;5037266;28;20111;-68
2023/01/19 07:21:05;;;;;;;7.55;4.38;;;;;;;1.38;50.32;99951.97;5032596;28;20045;-69
2023/01/19 07:23:33;;;;;;;7.47;4.80;;;;;;;1.37;50.14;99969.13;5037644;28;20060;-69
2023/01/19 07:26:01;;;;;;;7.80;4.85;;;;;;;1.37;50.09;99971.81;5044381;28;20037;-68
2023/01/19 07:28:30;;;;;;;8.75;4.72;;;;;;;1.37;50.12;99970.94;5044179;28;20065;-67
2023/01/19 07:30:58;;;;;;;6.97;4.68;;;;;;;1.35;50.22;99965.63;5045612;28;20099;-68
2023/01/19 07:33:27;;;;;;;7.60;4.22;;;;;;;1.35;50.35;99972.84;5046356;28;20048;-68
2023/01/19 07:35:54;;;;;;;8.70;4.95;;;;;;;1.35;50.22;99979.13;5035520;28;20068;-68
2023/01/19 07:38:24;;;;;;;7.88;4.78;;;;;;;1.36;50.38;99978.16;5036773;28;20455;-68
2023/01/19 07:40:51;;;;;;;8.05;4.70;;;;;;;1.34;50.17;99982.78;5037924;28;20033;-68
2023/01/19 07:43:19;;;;;;;7.82;4.97;;;;;;;1.34;50.38;99984.63;5035808;28;20048;-68
2023/01/19 07:45:47;;;;;;;9.65;5.38;;;;;;;1.34;50.50;99992.72;5040264;28;20053;-69
2023/01/19 07:48:15;;;;;;;9.45;5.25;;;;;;;1.34;50.28;99993.56;5032008;28;20045;-69
2023/01/19 07:50:43;;;;;;;8.30;4.72;;;;;;;1.33;50.40;99999.94;5039130;28;20099;-68
2023/01/19 07:53:11;;;;;;;8.48;4.97;;;;;;;1.35;50.45;100005.22;5045413;28;20065;-69
2023/01/19 07:55:40;;;;;;;9.05;5.15;;;;;;;1.36;50.65;100012.34;5039757;28;20092;-68
2023/01/19 07:58:08;;;;;;;8.25;5.32;;;;;;;1.35;50.53;100013.28;5042931;28;20375;-68
2023/01/19 08:00:38;;;;;;;8.88;4.97;;;;;;;1.37;50.73;100011.38;5043522;28;20063;-68
2023/01/19 08:03:07;;;;;;;8.45;5.20;;;;;;;1.37;50.79;100022.16;5044457;28;20041;-68
2023/01/19 08:05:35;;;;;;;9.05;5.45;;;;;;;1.38;50.80;100032.00;5043081;28;20659;-68
2023/01/19 08:08:04;;;;;;;9.60;5.22;;;;;;;1.39;50.84;100033.72;5044878;28;20124;-68
2023/01/19 08:10:33;;;;;;;9.57;5.28;;;;;;;1.40;50.85;100043.56;5038813;28;20052;-68
2023/01/19 08:13:02;;;;;;;9.10;5.45;;;;;;;1.41;51.31;100046.16;5034691;28;20049;-68
2023/01/19 08:15:30;;;;;;;9.93;5.45;;;;;;;1.42;50.96;100047.03;5040783;28;20076;-68
2023/01/19 08:18:00;;;;;;;9.25;5.30;;;;;;;1.45;50.94;100052.19;5040739;28;20112;-68
2023/01/19 08:20:29;;;;;;;9.02;5.00;;;;;;;1.46;51.00;100051.25;5040877;28;20047;-68
2023/01/19 08:22:59;;;;;;;8.93;5.35;;;;;;;1.45;51.06;100052.19;5041864;28;20470;-68
2023/01/19 08:25:33;;;;;;;9.27;5.75;;;;;;;1.48;51.39;100052.91;5039024;28;20045;-69
2023/01/19 08:28:03;;;;;;;8.32;5.18;;;;;;;1.48;51.18;100060.97;5038242;28;20453;-68
2023/01/19 08:30:30;;;;;;;10.60;5.32;;;;;;;1.49;50.95;100062.72;5038198;28;20501;-69
2023/01/19 08:33:03;;;;;;;9.57;5.53;;;;;;;1.51;51.20;100064.47;5040622;28;20104;-69
2023/01/19 08:35:31;;;;;;;10.38;5.70;;;;;;;1.49;51.13;100070.81;5044266;28;20042;-68
2023/01/19 08:38:00;;;;;;;8.50;5.15;;;;;;;1.53;50.87;100067.91;5041371;28;20042;-69
2023/01/19 08:40:29;;;;;;;9.27;5.53;;;;;;;1.52;51.00;100072.44;5040533;28;20639;-69
2023/01/19 08:43:00;;;;;;;9.65;5.32;;;;;;;1.54;51.05;100072.34;5045516;28;20044;-69
2023/01/19 08:45:30;;;;;;;9.52;5.70;;;;;;;1.53;51.17;100084.09;5037468;28;20049;-68
2023/01/19 08:47:59;;;;;;;9.23;5.80;;;;;;;1.53;51.34;100079.56;5035324;28;20041;-69
2023/01/19 08:50:27;;;;;;;8.80;5.43;;;;;;;1.54;51.18;100085.81;5033438;28;20060;-69
2023/01/19 08:52:56;;;;;;;10.50;5.82;;;;;;;1.55;51.11;100087.56;5035361;28;20054;-69
2023/01/19 08:55:25;;;;;;;10.20;5.82;;;;;;;1.56;51.20;100083.91;5032814;28;20096;-68
2023/01/19 08:57:53;;;;;;;9.75;5.38;;;;;;;1.57;51.07;100083.81;5037420;28;20045;-68
2023/01/19 09:00:22;;;;;;;10.10;5.93;;;;;;;1.58;51.33;100093.63;5026903;28;20396;-69
2023/01/19 09:02:51;;;;;;;10.43;6.20;;;;;;;1.60;51.39;100090.81;5026670;28;20045;-68
2023/01/19 09:05:19;;;;;;;11.50;6.55;;;;;;;1.61;51.35;100104.22;5039845;28;20053;-68
2023/01/19 09:07:47;;;;;;;9.35;6.57;;;;;;;1.62;51.49;100097.00;5032544;28;20496;-68
2023/01/19 09:10:16;;;;;;;11.93;6.88;;;;;;;1.64;51.32;100098.63;5046301;28;20053;-69
2023/01/19 09:12:45;;;;;;;11.10;6.75;;;;;;;1.66;51.46;100110.22;5047506;28;20048;-69
2023/01/19 09:15:13;;;;;;;11.77;6.88;;;;;;;1.67;51.34;100111.91;5040064;28;20421;-69
2023/01/19 09:17:41;;;;;;;11.15;6.68;;;;;;;1.69;51.24;100111.81;5046413;28;20482;-69
2023/01/19 09:20:12;;;;;;;12.00;6.75;;;;;;;1.70;51.55;100111.72;5032379;28;20532;-69
2023/01/19 09:22:40;;;;;;;10.95;7.00;;;;;;;1.72;51.53;100114.34;5035029;28;20045;-68
2023/01/19 09:25:09;;;;;;;11.65;6.78;;;;;;;1.73;51.29;100122.34;5046555;28;20051;-69
2023/01/19 09:27:37;;;;;;;12.95;7.43;;;;;;;1.74;51.33;100118.69;5033352;28;20042;-69
2023/01/19 09:30:05;;;;;;;14.95;8.57;;;;;;;1.75;51.51;100120.38;5043349;28;20503;-68
2023/01/19 09:32:36;;;;;;;11.77;7.40;;;;;;;1.76;51.47;100119.44;5039814;28;20319;-68
2023/01/19 09:35:04;;;;;;;14.13;8.40;;;;;;;1.78;51.42;100122.03;5041478;28;20053;-69
2023/01/19 09:37:33;;;;;;;12.13;7.38;;;;;;;1.81;51.72;100135.34;5036790;28;20053;-69
2023/01/19 09:40:01;;;;;;;11.50;7.57;;;;;;;1.81;51.44;100136.22;5043238;28;20485;-68
2023/01/19 09:42:41;;;;;;;16.48;7.93;;;;;;;1.86;52.17;100133.22;5046622;28;20106;-69
2023/01/19 09:45:18;;;;;;;14.90;7.90;;;;;;;1.88;52.08;100134.88;5037945;28;20056;-69
2023/01/19 09:47:48;;;;;;;14.18;7.95;;;;;;;1.90;51.76;100139.28;5026936;28;20057;-69
2023/01/19 09:50:20;;;;;;;13.00;7.55;;;;;;;1.91;51.77;100144.59;5047006;28;20053;-69
2023/01/19 09:52:59;;;;;;;14.77;7.93;;;;;;;1.93;52.20;100153.44;5032618;28;20061;-69
2023/01/19 09:55:29;;;;;;;15.25;8.13;;;;;;;1.93;51.62;100164.25;5027043;28;20041;-69
2023/01/19 09:57:57;;;;;;;13.63;8.18;;;;;;;1.94;51.62;100165.97;5024995;28;20048;-68
2023/01/19 10:00:27;;;;;;;15.23;8.35;;;;;;;1.96;51.73;100168.59;5039213;28;20060;-69
2023/01/19 10:03:00;;;;;;;14.40;7.97;;;;;;;1.98;51.86;100175.63;5045022;28;20135;-69
2023/01/19 10:05:30;;;;;;;;;;;;;;;1.77;53.01;100176.94;5040183;28;20065;-69
2023/01/19 10:08:13;;;;;;;15.70;7.50;;;;;;;1.97;52.41;100178.41;5034127;28;19921;-69
2023/01/19 10:10:45;;;;;;;14.77;8.35;;;;;;;1.97;51.90;100182.00;5032124;28;20591;-69
2023/01/19 10:13:24;;;;;;;15.65;8.07;;;;;;;2.01;52.03;100178.13;5037810;28;20124;-69
2023/01/19 10:16:02;;;;;;;16.17;8.82;;;;;;;2.03;52.35;100180.72;5043957;28;20620;-69
2023/01/19 10:18:46;;;;;;;17.10;8.95;;;;;;;2.04;52.48;100183.34;5045738;28;20041;-70
2023/01/19 10:21:20;;;;;;;16.40;8.57;;;;;;;2.03;52.18;100181.59;5027508;28;20045;-70
2023/01/19 10:23:53;;;;;;;16.75;9.80;;;;;;;2.04;51.99;100180.63;5038679;28;20047;-70
2023/01/19 10:26:23;;;;;;;15.75;8.52;;;;;;;2.05;51.73;100193.16;5045300;28;20407;-70
2023/01/19 10:28:57;;;;;;;16.48;8.65;;;;;;;2.05;51.89;100190.47;5041691;28;20514;-70
2023/01/19 10:31:25;;;;;;;16.88;9.15;;;;;;;2.04;51.74;100191.44;5038427;28;20465;-69
2023/01/19 10:33:54;;;;;;;17.52;9.35;;;;;;;2.05;51.61;100190.47;5037294;28;20118;-70
2023/01/19 10:36:28;;;;;;;25.55;9.65;;;;;;;2.07;52.14;100191.25;5029316;28;20566;-70
2023/01/19 10:38:58;;;;;;;18.50;9.43;;;;;;;2.06;51.94;100197.59;5034869;28;20033;-70
2023/01/19 10:41:30;;;;;;;14.90;8.82;;;;;;;2.07;51.86;100195.78;5048345;28;20044;-70
2023/01/19 10:44:00;;;;;;;18.63;9.85;;;;;;;2.07;51.95;100207.44;5049535;28;20049;-70
2023/01/19 10:46:37;;;;;;;23.65;9.95;;;;;;;2.10;52.23;100195.56;5036617;28;20049;-70
2023/01/19 10:49:06;;;;;;;17.58;9.00;;;;;;;2.09;51.74;100201.91;5040459;28;20045;-70
2023/01/19 10:51:46;;;;;;;17.98;9.20;;;;;;;2.11;51.82;100206.28;5045752;28;20694;-70
2023/01/19 10:54:16;;;;;;;18.15;9.07;;;;;;;2.12;51.91;100197.22;5043629;28;20049;-70
2023/01/19 10:56:52;;;;;;;21.35;9.48;;;;;;;2.14;52.28;100191.72;5041756;28;20128;-70
2023/01/19 10:59:32;;;;;;;18.17;9.65;;;;;;;2.14;52.34;100202.53;5047888;28;20049;-70
2023/01/19 11:02:20;;;;;;;15.30;9.25;;;;;;;2.14;52.39;100198.00;5049648;28;20143;-70
2023/01/19 11:04:51;;;;;;;16.42;8.23;;;;;;;2.14;51.80;100207.91;5045931;28;20136;-70
2023/01/19 11:07:21;;;;;;;17.52;9.32;;;;;;;2.16;52.06;100203.28;5048483;28;20068;-70
2023/01/19 11:10:12;;;;;;;19.52;9.45;;;;;;;2.18;52.48;100194.13;5052168;28;20581;-70
2023/01/19 11:12:41;;;;;;;16.45;8.90;;;;;;;2.16;51.86;100198.78;5050364;28;20080;-70
2023/01/19 11:15:15;;;;;;;20.80;9.77;;;;;;;2.20;52.50;100197.59;5043762;28;20044;-70
2023/01/19 11:17:47;;;;;;;16.48;8.95;;;;;;;2.20;52.22;100205.69;5038188;28;20045;-70
2023/01/19 11:20:21;;;;;;;16.35;9.10;;;;;;;2.23;52.52;100204.63;5052500;28;20048;-70
2023/01/19 11:23:04;;;;;;;15.27;8.80;;;;;;;2.23;52.17;100202.81;5054065;28;20506;-70
2023/01/19 11:25:35;;;;;;;16.17;8.75;;;;;;;2.23;52.21;100202.81;5050264;28;20446;-71
2023/01/19 11:28:03;;;;;;;16.75;9.05;;;;;;;2.25;51.92;100206.25;5043702;28;20037;-70
2023/01/19 11:30:34;;;;;;;18.40;9.55;;;;;;;2.27;51.97;100206.16;5049702;28;20044;-70
2023/01/19 11:33:04;;;;;;;14.88;8.90;;;;;;;2.29;52.21;100203.38;5051447;28;20068;-70
2023/01/19 11:35:36;;;;;;;16.70;9.20;;;;;;;2.29;52.08;100206.94;5044627;28;20037;-70
2023/01/19 11:38:16;;;;;;;16.25;8.02;;;;;;;2.32;52.57;100203.19;5051793;28;20041;-70
2023/01/19 11:40:53;;;;;;;15.48;8.85;;;;;;;2.32;52.71;100205.88;5043456;28;20112;-70
2023/01/19 11:43:22;;;;;;;17.13;9.13;;;;;;;2.32;52.05;100197.78;5034541;28;20394;-70
2023/01/19 11:45:51;;;;;;;18.25;9.52;;;;;;;2.33;52.00;100213.03;5044967;28;20045;-70
2023/01/19 11:48:27;;;;;;;17.50;9.05;;;;;;;2.35;52.41;100202.97;5051252;28;20405;-70
2023/01/19 11:50:57;;;;;;;16.42;8.05;;;;;;;2.34;52.03;100206.63;5038404;28;20049;-70
2023/01/19 11:53:28;;;;;;;17.70;8.85;;;;;;;2.34;52.15;100206.63;5041485;28;20072;-70
2023/01/19 11:56:03;;;;;;;15.85;8.52;;;;;;;2.36;52.13;100202.88;5048211;28;20060;-70
2023/01/19 11:58:33;;;;;;;15.70;8.40;;;;;;;2.37;52.16;100204.63;5048092;28;20041;-70
2023/01/19 12:01:06;;;;;;;16.30;8.85;;;;;;;2.38;52.46;100198.25;5045876;28;20091;-70
2023/01/19 12:03:40;;;;;;;17.67;9.57;;;;;;;2.39;52.34;100199.13;5039973;28;20399;-70